createdAt,value
2023-05-10T00:00:42.591Z,6.80
2023-05-10T00:10:44.395Z,7.90
2023-05-10T00:20:45.876Z,8.63
2023-05-10T00:30:47.340Z,7.50
2023-05-10T00:40:48.942Z,6.73
2023-05-10T00:50:50.522Z,7.97
2023-05-10T01:00:53.103Z,8.67
2023-05-10T01:10:55.494Z,10.77
2023-05-10T01:21:23.232Z,11.30
2023-05-10T01:32:02.015Z,9.77
2023-05-10T01:42:11.873Z,10.03
2023-05-10T01:52:16.744Z,8.17
2023-05-10T02:02:20.983Z,9.80
2023-05-10T02:12:23.615Z,8.02
2023-05-10T02:22:27.485Z,8.10
2023-05-10T02:32:30.050Z,7.93
2023-05-10T02:42:36.054Z,7.27
2023-05-10T02:52:45.309Z,6.73
2023-05-10T03:02:46.811Z,7.18
2023-05-10T03:13:26.600Z,7.80
2023-05-10T03:23:35.033Z,7.97
2023-05-10T03:33:36.623Z,8.83
2023-05-10T03:43:38.181Z,7.87
2023-05-10T03:53:41.576Z,8.25
2023-05-10T04:03:43.125Z,8.00
2023-05-10T04:13:44.677Z,8.10
2023-05-10T04:23:46.180Z,7.03
2023-05-10T04:33:47.633Z,7.57
2023-05-10T04:43:49.112Z,7.03
2023-05-10T04:54:01.527Z,7.23
2023-05-10T05:04:07.343Z,7.03
2023-05-10T05:14:08.811Z,5.87
2023-05-10T05:24:10.506Z,6.07
2023-05-10T05:34:11.973Z,6.05
2023-05-10T05:44:13.491Z,5.20
2023-05-10T05:54:15.028Z,4.47
2023-05-10T06:04:17.192Z,5.53
2023-05-10T06:14:21.403Z,5.80
2023-05-10T06:24:22.936Z,5.68
2023-05-10T06:34:24.460Z,5.57
2023-05-10T06:44:25.978Z,6.40
2023-05-10T06:54:27.513Z,6.60
2023-05-10T07:04:29.154Z,7.30
2023-05-10T07:14:34.860Z,8.05
2023-05-10T07:24:36.645Z,6.97
2023-05-10T07:34:38.164Z,7.97
2023-05-10T07:44:39.708Z,6.23
2023-05-10T07:54:41.232Z,7.47
2023-05-10T08:04:42.859Z,7.45
2023-05-10T08:14:44.547Z,6.10
2023-05-10T08:24:46.047Z,6.97
2023-05-10T08:34:47.557Z,5.80
2023-05-10T08:44:49.865Z,6.37
2023-05-10T08:54:51.535Z,8.18
2023-05-10T09:04:53.243Z,8.63
2023-05-10T09:14:56.343Z,7.77
2023-05-10T09:25:12.453Z,5.77
2023-05-10T09:35:15.074Z,6.50
2023-05-10T09:45:16.806Z,5.90
2023-05-10T09:55:26.790Z,5.90
2023-05-10T10:05:36.538Z,6.10
2023-05-10T10:15:38.246Z,5.57
2023-05-10T10:25:40.056Z,4.20
2023-05-10T10:35:41.871Z,6.22
2023-05-10T10:45:43.354Z,5.60
2023-05-10T10:55:48.953Z,5.50
2023-05-10T11:05:51.350Z,5.60
2023-05-10T11:15:53.067Z,6.93
2023-05-10T11:25:55.072Z,5.50
2023-05-10T11:35:56.638Z,4.30
2023-05-10T11:45:58.324Z,4.70
2023-05-10T11:56:12.028Z,4.37
2023-05-10T12:06:14.043Z,4.87
2023-05-10T12:16:21.749Z,4.38
2023-05-10T12:26:23.954Z,4.73
2023-05-10T12:36:25.644Z,6.00
2023-05-10T12:46:27.264Z,4.10
2023-05-10T12:56:28.785Z,4.33
2023-05-10T13:06:30.362Z,5.25
2023-05-10T13:16:32.476Z,5.53
2023-05-10T13:26:34.605Z,5.70
2023-05-10T13:36:36.164Z,5.43
2023-05-10T13:46:39.830Z,7.30
2023-05-10T13:56:43.910Z,5.95
2023-05-10T14:06:45.398Z,6.17
2023-05-10T14:16:46.981Z,5.73
2023-05-10T14:26:48.515Z,6.57
2023-05-10T14:36:50.024Z,5.23
2023-05-10T14:46:51.732Z,5.00
2023-05-10T14:56:53.205Z,4.97
2023-05-10T15:06:54.748Z,5.67
2023-05-10T15:17:01.681Z,5.83
2023-05-10T15:27:03.349Z,6.20
2023-05-10T15:37:04.829Z,7.65
2023-05-10T15:47:06.482Z,7.40
2023-05-10T15:57:08.055Z,7.47
2023-05-10T16:07:12.266Z,7.27
2023-05-10T16:17:15.496Z,7.67
2023-05-10T16:27:17.124Z,8.27
2023-05-10T16:37:18.685Z,8.63
2023-05-10T16:47:20.303Z,9.03
2023-05-10T16:57:22.164Z,8.97
2023-05-10T17:07:26.041Z,7.90
2023-05-10T17:17:27.904Z,7.50
2023-05-10T17:27:29.563Z,7.97
2023-05-10T17:37:31.310Z,6.77
2023-05-10T17:47:32.851Z,8.17
2023-05-10T17:57:34.424Z,6.80
2023-05-10T18:07:35.965Z,7.38
2023-05-10T18:17:37.541Z,8.70
2023-05-10T18:27:39.115Z,9.77
2023-05-10T18:37:40.677Z,11.00
2023-05-10T18:47:42.229Z,10.20
2023-05-10T18:57:47.859Z,10.13
2023-05-10T19:07:49.391Z,8.90
2023-05-10T19:17:51.696Z,9.13
2023-05-10T19:27:53.335Z,7.50
2023-05-10T19:37:54.885Z,7.63
2023-05-10T19:47:56.510Z,7.95
2023-05-10T19:57:58.809Z,8.60
2023-05-10T20:08:00.373Z,8.50
2023-05-10T20:18:01.879Z,9.63
2023-05-10T20:28:03.458Z,11.53
2023-05-10T20:38:04.972Z,10.95
2023-05-10T20:48:09.472Z,10.70
2023-05-10T20:58:10.977Z,9.80
2023-05-10T21:08:12.488Z,10.20
2023-05-10T21:18:13.960Z,9.27
2023-05-10T21:28:15.457Z,8.90
2023-05-10T21:38:16.956Z,8.63
2023-05-10T21:48:18.492Z,8.23
2023-05-10T21:58:19.951Z,6.43
2023-05-10T22:08:21.442Z,5.30
2023-05-10T22:18:23.008Z,4.40
2023-05-10T22:28:24.672Z,5.00
2023-05-10T22:38:26.215Z,5.80
2023-05-10T22:48:28.695Z,5.63
2023-05-10T22:58:31.619Z,5.60
2023-05-10T23:08:34.232Z,5.03
2023-05-10T23:18:35.789Z,4.53
2023-05-10T23:28:37.337Z,4.93
2023-05-10T23:38:38.808Z,3.70
2023-05-10T23:48:40.317Z,3.47
2023-05-10T23:58:41.792Z,1.83
